Karval, Colorado
Current Conditions -  °F | °C
As of 4:55 AM on Friday 24 Oct 2014 (Local Time) from KLIC Reporting Station
Clear Clear  
Wind Chill: 37°   Ceiling: Unl
Heat Index: 40°   Visibility: 10mi
Dew Point: 34°   Wind: 5mph
Humidity: 79%   Direction: 340°NNW
Pressure: 30.16"   Gusts: NA
Location:  38.73°N, 103.54°W
Report Text: KLIC 241055Z AUTO 34004KT 10SM CLR 04/01 A3016 RMK AO2 SLP170 T00440011
Loading
Personal Weather Stations






























Interactive Weather Map
Tropical Storm Tracking
New forecast layout! Learn more

10-Day Weather Forecast

Advertisements
Track Severe Weather on mobile